createdAt,value
2023-03-03T00:00:44.090Z,98766.00
2023-03-03T00:03:15.932Z,98759.00
2023-03-03T00:05:42.701Z,98764.00
2023-03-03T00:08:10.411Z,98754.00
2023-03-03T00:10:38.444Z,98762.00
2023-03-03T00:13:13.354Z,98758.00
2023-03-03T00:15:39.885Z,98758.00
2023-03-03T00:18:22.531Z,98763.00
2023-03-03T00:20:53.593Z,98768.00
2023-03-03T00:23:37.710Z,98767.00
2023-03-03T00:26:23.960Z,98762.00
2023-03-03T00:28:52.847Z,98767.00
2023-03-03T00:31:23.234Z,98767.00
2023-03-03T00:33:55.028Z,98763.00
2023-03-03T00:43:22.069Z,98772.00
2023-03-03T00:45:50.452Z,98778.00
2023-03-03T00:48:29.784Z,98776.00
2023-03-03T00:51:01.361Z,98777.00
2023-03-03T00:53:30.484Z,98773.00
2023-03-03T00:55:57.601Z,98771.00
2023-03-03T00:58:24.768Z,98777.00
2023-03-03T01:00:53.625Z,98776.00
2023-03-03T01:03:26.460Z,98783.00
2023-03-03T01:05:54.410Z,98791.00
2023-03-03T01:08:22.179Z,98782.00
2023-03-03T01:10:51.269Z,98774.00
2023-03-03T01:13:20.053Z,98773.00
2023-03-03T01:15:46.806Z,98780.00
2023-03-03T01:18:14.567Z,98774.00
2023-03-03T01:20:41.325Z,98777.00
2023-03-03T01:23:08.127Z,98773.00
2023-03-03T01:25:34.693Z,98775.00
2023-03-03T01:28:01.198Z,98779.00
2023-03-03T01:30:27.731Z,98773.00
2023-03-03T01:32:54.495Z,98772.00
2023-03-03T01:35:21.330Z,98773.00
2023-03-03T01:37:47.968Z,98775.00
2023-03-03T01:40:18.078Z,98780.00
2023-03-03T01:42:44.593Z,98783.00
2023-03-03T01:45:31.854Z,98778.00
2023-03-03T01:48:03.012Z,98778.00
2023-03-03T01:50:32.684Z,98783.00
2023-03-03T01:53:02.281Z,98777.00
2023-03-03T01:55:33.486Z,98762.00
2023-03-03T01:58:09.004Z,98767.00
2023-03-03T02:00:39.127Z,98758.00
2023-03-03T02:03:06.260Z,98758.00
2023-03-03T02:05:35.100Z,98765.00
2023-03-03T02:08:01.927Z,98756.00
2023-03-03T02:10:29.587Z,98758.00
2023-03-03T02:12:58.401Z,98755.00
2023-03-03T02:15:32.176Z,98752.00
2023-03-03T02:18:12.700Z,98750.00
2023-03-03T02:21:03.667Z,98755.00
2023-03-03T02:23:50.124Z,98755.00
2023-03-03T02:26:26.241Z,98771.00
2023-03-03T02:28:57.924Z,98766.00
2023-03-03T02:31:28.710Z,98773.00
2023-03-03T02:33:55.871Z,98767.00
2023-03-03T02:36:44.402Z,98763.00
2023-03-03T02:39:18.226Z,98770.00
2023-03-03T02:42:02.965Z,98756.00
2023-03-03T02:44:51.995Z,98760.00
2023-03-03T02:47:18.540Z,98748.00
2023-03-03T02:49:45.184Z,98756.00
2023-03-03T02:52:12.593Z,98759.00
2023-03-03T02:54:41.463Z,98769.00
2023-03-03T02:57:08.991Z,98756.00
2023-03-03T02:59:35.521Z,98756.00
2023-03-03T03:02:09.094Z,98755.00
2023-03-03T03:04:35.805Z,98759.00
2023-03-03T03:07:02.302Z,98761.00
2023-03-03T03:09:30.904Z,98756.00
2023-03-03T03:12:02.302Z,98752.00
2023-03-03T03:14:30.932Z,98756.00
2023-03-03T03:16:58.531Z,98759.00
2023-03-03T03:19:26.728Z,98753.00
2023-03-03T03:21:53.470Z,98755.00
2023-03-03T03:24:20.618Z,98759.00
2023-03-03T03:26:53.540Z,98763.00
2023-03-03T03:29:20.994Z,98749.00
2023-03-03T03:31:47.815Z,98762.00
2023-03-03T03:34:14.342Z,98757.00
2023-03-03T03:36:40.852Z,98752.00
2023-03-03T03:39:07.877Z,98750.00
2023-03-03T03:41:37.287Z,98762.00
2023-03-03T03:44:04.381Z,98767.00
2023-03-03T03:46:31.025Z,98763.00
2023-03-03T03:48:57.672Z,98766.00
2023-03-03T03:51:25.204Z,98767.00
2023-03-03T03:53:51.730Z,98757.00
2023-03-03T03:56:18.363Z,98755.00
2023-03-03T03:58:47.863Z,98744.00
2023-03-03T04:01:15.410Z,98754.00
2023-03-03T04:03:46.517Z,98759.00
2023-03-03T04:06:16.822Z,98755.00
2023-03-03T04:08:44.180Z,98749.00
2023-03-03T04:11:11.202Z,98758.00
2023-03-03T04:13:38.007Z,98764.00
2023-03-03T04:16:06.871Z,98764.00
2023-03-03T04:18:34.386Z,98765.00
2023-03-03T04:21:02.201Z,98771.00
2023-03-03T04:23:28.712Z,98761.00
2023-03-03T04:25:55.344Z,98760.00
2023-03-03T04:28:24.534Z,98760.00
2023-03-03T04:30:52.081Z,98760.00
2023-03-03T04:33:20.805Z,98757.00
2023-03-03T04:35:48.271Z,98758.00
2023-03-03T04:38:15.032Z,98758.00
2023-03-03T04:40:42.518Z,98767.00
2023-03-03T04:43:11.168Z,98770.00
2023-03-03T04:45:37.762Z,98766.00
2023-03-03T04:48:05.075Z,98767.00
2023-03-03T04:50:32.917Z,98772.00
2023-03-03T04:52:59.469Z,98770.00
2023-03-03T04:55:26.994Z,98767.00
2023-03-03T04:57:53.543Z,98775.00
2023-03-03T05:00:20.376Z,98772.00
2023-03-03T05:02:48.242Z,98771.00
2023-03-03T05:05:14.968Z,98774.00
2023-03-03T05:07:41.467Z,98779.00
2023-03-03T05:10:08.555Z,98782.00
2023-03-03T05:12:35.011Z,98773.00
2023-03-03T05:15:01.414Z,98781.00
2023-03-03T05:17:27.941Z,98776.00
2023-03-03T05:19:57.204Z,98787.00
2023-03-03T05:22:24.755Z,98785.00
2023-03-03T05:24:51.588Z,98787.00
2023-03-03T05:27:18.098Z,98792.00
2023-03-03T05:29:44.845Z,98794.00
2023-03-03T05:32:11.476Z,98794.00
2023-03-03T05:34:39.056Z,98793.00
2023-03-03T05:37:06.719Z,98788.00
2023-03-03T05:39:34.183Z,98799.00
2023-03-03T05:42:00.709Z,98802.00
2023-03-03T05:44:27.527Z,98800.00
2023-03-03T05:46:54.211Z,98799.00
2023-03-03T05:49:20.664Z,98814.00
2023-03-03T05:51:47.108Z,98803.00
2023-03-03T05:54:13.640Z,98814.00
2023-03-03T05:56:40.092Z,98811.00
2023-03-03T05:59:06.530Z,98817.00
2023-03-03T06:01:33.238Z,98825.00
2023-03-03T06:03:59.714Z,98826.00
2023-03-03T06:06:26.646Z,98830.00
2023-03-03T06:08:55.551Z,98826.00
2023-03-03T06:11:23.728Z,98831.00
2023-03-03T06:13:50.282Z,98833.00
2023-03-03T06:16:16.789Z,98825.00
2023-03-03T06:18:43.534Z,98833.00
2023-03-03T06:21:10.037Z,98833.00
2023-03-03T06:23:36.741Z,98836.00
2023-03-03T06:26:03.356Z,98840.00
2023-03-03T06:28:29.849Z,98834.00
2023-03-03T06:30:56.698Z,98836.00
2023-03-03T06:33:23.898Z,98836.00
2023-03-03T06:35:51.598Z,98830.00
2023-03-03T06:38:19.102Z,98829.00
2023-03-03T06:40:47.261Z,98832.00
2023-03-03T06:43:14.220Z,98839.00
2023-03-03T06:45:40.794Z,98850.00
2023-03-03T06:48:07.397Z,98844.00
2023-03-03T06:50:34.868Z,98845.00
2023-03-03T06:53:15.452Z,98842.00
2023-03-03T06:55:44.662Z,98857.00
2023-03-03T06:58:14.868Z,98856.00
2023-03-03T07:00:56.948Z,98861.00
2023-03-03T07:03:25.523Z,98870.00
2023-03-03T07:05:53.548Z,98875.00
2023-03-03T07:08:22.467Z,98876.00
2023-03-03T07:10:50.706Z,98884.00
2023-03-03T07:13:23.436Z,98884.00
2023-03-03T07:15:52.029Z,98890.00
2023-03-03T07:18:37.344Z,98887.00
2023-03-03T07:21:16.302Z,98885.00
2023-03-03T07:23:45.040Z,98887.00
2023-03-03T07:26:18.519Z,98889.00
2023-03-03T07:28:52.352Z,98901.00
2023-03-03T07:31:42.185Z,98900.00
2023-03-03T07:34:31.017Z,98900.00
2023-03-03T07:37:09.611Z,98902.00
2023-03-03T07:39:41.008Z,98894.00
2023-03-03T07:42:14.614Z,98905.00
2023-03-03T07:44:41.242Z,98905.00
2023-03-03T07:47:18.370Z,98909.00
2023-03-03T07:49:45.331Z,98909.00
2023-03-03T07:52:31.269Z,98918.00
2023-03-03T07:55:02.043Z,98917.00
2023-03-03T07:57:39.786Z,98917.00
2023-03-03T08:00:18.522Z,98920.00
2023-03-03T08:02:47.188Z,98917.00
2023-03-03T08:05:36.201Z,98914.00
2023-03-03T08:08:31.026Z,98926.00
2023-03-03T08:11:01.759Z,98926.00
2023-03-03T08:13:34.007Z,98925.00
2023-03-03T08:16:09.628Z,98926.00
2023-03-03T08:18:39.687Z,98927.00
2023-03-03T08:21:14.507Z,98922.00
2023-03-03T08:23:41.436Z,98926.00
2023-03-03T08:26:09.425Z,98934.00
2023-03-03T08:28:35.932Z,98930.00
2023-03-03T08:31:15.275Z,98930.00
2023-03-03T08:33:47.037Z,98945.00
2023-03-03T08:36:14.109Z,98942.00
2023-03-03T08:38:40.733Z,98940.00
2023-03-03T08:41:07.594Z,98946.00
2023-03-03T08:43:34.003Z,98942.00
2023-03-03T08:46:02.672Z,98942.00
2023-03-03T08:48:29.759Z,98958.00
2023-03-03T08:50:56.324Z,98958.00
2023-03-03T08:53:23.489Z,98959.00
2023-03-03T08:55:50.256Z,98959.00
2023-03-03T08:58:19.250Z,98958.00
2023-03-03T09:00:48.919Z,98963.00
2023-03-03T09:03:16.259Z,98963.00
2023-03-03T09:05:42.914Z,98966.00
2023-03-03T09:08:10.732Z,98962.00
2023-03-03T09:10:37.312Z,98962.00
2023-03-03T09:13:16.199Z,98967.00
2023-03-03T09:15:42.801Z,98962.00
2023-03-03T09:18:27.681Z,98969.00
2023-03-03T09:20:57.361Z,98968.00
2023-03-03T09:23:23.924Z,98963.00
2023-03-03T09:25:51.589Z,98962.00
2023-03-03T09:28:24.460Z,98971.00
2023-03-03T09:30:52.566Z,98970.00
2023-03-03T09:33:26.741Z,98980.00
2023-03-03T09:36:09.987Z,98981.00
2023-03-03T09:38:41.690Z,98984.00
2023-03-03T09:41:29.246Z,98991.00
2023-03-03T09:44:01.578Z,98978.00
2023-03-03T09:46:51.175Z,98982.00
2023-03-03T09:50:08.593Z,98979.00
2023-03-03T09:52:46.581Z,98984.00
2023-03-03T09:55:24.955Z,98979.00
2023-03-03T09:58:11.313Z,98997.00
2023-03-03T10:01:02.392Z,98990.00
2023-03-03T10:03:53.491Z,99000.00
2023-03-03T10:06:33.736Z,98991.00
2023-03-03T10:09:21.905Z,99002.00
2023-03-03T10:12:13.419Z,98987.00
2023-03-03T10:15:04.514Z,99005.00
2023-03-03T10:17:52.087Z,99000.00
2023-03-03T10:20:49.120Z,99003.00
2023-03-03T10:23:59.478Z,99017.00
2023-03-03T10:27:11.770Z,99003.00
2023-03-03T10:30:11.307Z,99017.00
2023-03-03T10:32:45.866Z,99017.00
2023-03-03T10:35:18.542Z,99014.00
2023-03-03T10:38:06.014Z,99009.00
2023-03-03T10:40:50.809Z,99017.00
2023-03-03T10:43:31.799Z,99016.00
2023-03-03T10:46:20.155Z,99007.00
2023-03-03T10:48:55.685Z,99022.00
2023-03-03T10:51:31.937Z,99019.00
2023-03-03T10:54:33.468Z,99025.00
2023-03-03T10:57:23.640Z,99030.00
2023-03-03T11:00:16.619Z,99016.00
2023-03-03T11:03:07.805Z,99019.00
2023-03-03T11:06:04.886Z,99015.00
2023-03-03T11:08:55.196Z,99013.00
2023-03-03T11:11:46.175Z,99005.00
2023-03-03T11:14:30.470Z,98999.00
2023-03-03T11:17:35.239Z,99002.00
2023-03-03T11:20:09.640Z,99003.00
2023-03-03T11:23:03.835Z,98995.00
2023-03-03T11:25:38.031Z,98995.00
2023-03-03T11:28:26.300Z,99000.00
2023-03-03T11:31:08.619Z,99000.00
2023-03-03T11:33:56.826Z,98994.00
2023-03-03T11:36:28.649Z,98994.00
2023-03-03T11:39:08.820Z,99003.00
2023-03-03T11:41:43.355Z,98998.00
2023-03-03T11:44:29.347Z,98991.00
2023-03-03T11:47:05.674Z,99004.00
2023-03-03T11:49:53.858Z,98994.00
2023-03-03T11:52:24.383Z,98987.00
2023-03-03T11:54:54.944Z,98988.00
2023-03-03T11:57:29.196Z,98990.00
2023-03-03T12:00:28.051Z,98989.00
2023-03-03T12:03:13.198Z,98983.00
2023-03-03T12:05:56.182Z,98979.00
2023-03-03T12:08:47.970Z,98986.00
2023-03-03T12:11:53.993Z,98974.00
2023-03-03T12:14:40.464Z,98988.00
2023-03-03T12:17:32.583Z,98980.00
2023-03-03T12:20:08.201Z,98985.00
2023-03-03T12:22:38.644Z,98976.00
2023-03-03T12:25:23.004Z,98973.00
2023-03-03T12:27:52.264Z,98992.00
2023-03-03T12:30:48.926Z,98992.00
2023-03-03T12:33:37.938Z,98997.00
2023-03-03T12:36:29.245Z,98990.00
2023-03-03T12:39:33.929Z,98984.00
2023-03-03T12:42:23.549Z,98981.00
2023-03-03T12:45:03.601Z,98976.00
2023-03-03T12:47:49.193Z,98972.00
2023-03-03T12:50:25.142Z,98969.00
2023-03-03T12:53:13.062Z,98966.00
2023-03-03T12:55:52.766Z,98960.00
2023-03-03T12:58:46.762Z,98962.00
2023-03-03T13:01:31.760Z,98954.00
2023-03-03T13:04:32.400Z,98967.00
2023-03-03T13:07:05.383Z,98960.00
2023-03-03T13:09:55.652Z,98954.00
2023-03-03T13:12:30.492Z,98959.00
2023-03-03T13:15:19.341Z,98959.00
2023-03-03T13:18:01.119Z,98964.00
2023-03-03T13:20:44.666Z,98960.00
2023-03-03T13:23:31.973Z,98960.00
2023-03-03T13:26:16.444Z,98962.00
2023-03-03T13:29:02.381Z,98960.00
2023-03-03T13:31:55.211Z,98953.00
2023-03-03T13:34:30.751Z,98948.00
2023-03-03T13:37:19.915Z,98947.00
2023-03-03T13:40:16.374Z,98949.00
2023-03-03T13:42:51.445Z,98950.00
2023-03-03T13:45:18.127Z,98940.00
2023-03-03T13:48:28.361Z,98939.00
2023-03-03T13:51:04.563Z,98939.00
2023-03-03T13:53:56.053Z,98942.00
2023-03-03T13:56:34.693Z,98941.00
2023-03-03T13:59:30.743Z,98950.00
2023-03-03T14:02:34.602Z,98951.00
2023-03-03T14:05:04.652Z,98947.00
2023-03-03T14:07:51.057Z,98941.00
2023-03-03T14:10:26.236Z,98941.00
2023-03-03T14:13:11.531Z,98928.00
2023-03-03T14:15:50.905Z,98939.00
2023-03-03T14:18:32.669Z,98930.00
2023-03-03T14:21:15.872Z,98931.00
2023-03-03T14:24:07.079Z,98926.00
2023-03-03T14:26:49.795Z,98932.00
2023-03-03T14:29:31.717Z,98933.00
2023-03-03T14:32:20.176Z,98929.00
2023-03-03T14:34:58.318Z,98926.00
2023-03-03T14:37:29.691Z,98916.00
2023-03-03T14:40:14.704Z,98923.00
2023-03-03T14:42:51.560Z,98912.00
2023-03-03T14:45:29.360Z,98917.00
2023-03-03T14:47:57.889Z,98909.00
2023-03-03T14:50:49.050Z,98903.00
2023-03-03T14:53:18.420Z,98912.00
2023-03-03T14:55:50.899Z,98917.00
2023-03-03T14:58:35.076Z,98909.00
2023-03-03T15:01:14.601Z,98907.00
2023-03-03T15:03:49.078Z,98893.00
2023-03-03T15:06:30.533Z,98910.00
2023-03-03T15:08:57.193Z,98907.00
2023-03-03T15:11:32.236Z,98893.00
2023-03-03T15:14:14.792Z,98902.00
2023-03-03T15:16:44.948Z,98901.00
2023-03-03T15:19:39.298Z,98899.00
2023-03-03T15:22:25.746Z,98901.00
2023-03-03T15:25:01.029Z,98898.00
2023-03-03T15:28:06.129Z,98899.00
2023-03-03T15:30:44.448Z,98896.00
2023-03-03T15:34:06.738Z,98906.00
2023-03-03T15:36:33.261Z,98903.00
2023-03-03T15:38:59.787Z,98896.00
2023-03-03T15:42:03.119Z,98904.00
2023-03-03T15:44:45.202Z,98892.00
2023-03-03T15:47:32.642Z,98902.00
2023-03-03T15:50:18.545Z,98902.00
2023-03-03T15:53:18.881Z,98902.00
2023-03-03T15:56:36.958Z,98908.00
2023-03-03T15:59:32.685Z,98908.00
2023-03-03T16:02:17.758Z,98907.00
2023-03-03T16:05:10.130Z,98914.00
2023-03-03T16:07:52.135Z,98911.00
2023-03-03T16:10:18.795Z,98910.00
2023-03-03T16:13:04.566Z,98916.00
2023-03-03T16:15:50.687Z,98922.00
2023-03-03T16:18:17.192Z,98923.00
2023-03-03T16:20:59.240Z,98930.00
2023-03-03T16:23:37.566Z,98932.00
2023-03-03T16:26:13.094Z,98935.00
2023-03-03T16:29:11.449Z,98937.00
2023-03-03T16:31:47.757Z,98944.00
2023-03-03T16:34:44.841Z,98943.00
2023-03-03T16:37:18.700Z,98945.00
2023-03-03T16:39:56.805Z,98944.00
2023-03-03T16:42:31.558Z,98951.00
2023-03-03T16:45:21.422Z,98957.00
2023-03-03T16:47:57.321Z,98958.00
2023-03-03T16:50:30.278Z,98959.00
2023-03-03T16:53:11.101Z,98960.00
2023-03-03T16:56:19.710Z,98970.00
2023-03-03T16:59:05.106Z,98972.00
2023-03-03T17:01:40.354Z,98985.00
2023-03-03T17:04:31.475Z,98985.00
2023-03-03T17:07:02.846Z,98980.00
2023-03-03T17:10:02.861Z,98990.00
2023-03-03T17:12:53.954Z,98993.00
2023-03-03T17:15:39.295Z,98991.00
2023-03-03T17:18:28.099Z,98986.00
2023-03-03T17:21:00.826Z,98993.00
2023-03-03T17:23:44.138Z,98990.00
2023-03-03T17:26:30.766Z,99000.00
2023-03-03T17:29:45.084Z,99005.00
2023-03-03T17:32:43.566Z,99004.00
2023-03-03T17:35:27.693Z,99003.00
2023-03-03T17:38:30.633Z,99007.00
2023-03-03T17:41:03.404Z,99012.00
2023-03-03T17:43:43.607Z,99016.00
2023-03-03T17:46:30.335Z,99014.00
2023-03-03T17:49:25.123Z,99030.00
2023-03-03T17:51:51.501Z,99028.00
2023-03-03T17:55:12.492Z,99032.00
2023-03-03T17:57:48.112Z,99029.00
2023-03-03T18:00:32.714Z,99032.00
2023-03-03T18:03:08.286Z,99031.00
2023-03-03T18:05:53.781Z,99035.00
2023-03-03T18:08:57.513Z,99034.00
2023-03-03T18:11:44.137Z,99038.00
2023-03-03T18:14:35.293Z,99038.00
2023-03-03T18:17:14.437Z,99039.00
2023-03-03T18:20:07.919Z,99051.00
2023-03-03T18:22:43.686Z,99041.00
2023-03-03T18:25:19.592Z,99050.00
2023-03-03T18:27:47.840Z,99049.00
2023-03-03T18:30:17.136Z,99054.00
2023-03-03T18:32:48.392Z,99050.00
2023-03-03T18:35:30.307Z,99060.00
2023-03-03T18:37:57.495Z,99058.00
2023-03-03T18:40:29.611Z,99057.00
2023-03-03T18:42:56.284Z,99067.00
2023-03-03T18:45:24.521Z,99072.00
2023-03-03T18:48:03.307Z,99081.00
2023-03-03T18:50:47.773Z,99074.00
2023-03-03T18:53:14.396Z,99075.00
2023-03-03T18:55:43.811Z,99069.00
2023-03-03T18:58:16.339Z,99078.00
2023-03-03T19:01:11.633Z,99086.00
2023-03-03T19:03:47.006Z,99084.00
2023-03-03T19:06:38.443Z,99072.00
2023-03-03T19:09:06.764Z,99070.00
2023-03-03T19:11:41.037Z,99086.00
2023-03-03T19:14:16.789Z,99081.00
2023-03-03T19:16:44.457Z,99079.00
2023-03-03T19:19:12.351Z,99091.00
2023-03-03T19:21:42.700Z,99095.00
2023-03-03T19:24:26.926Z,99091.00
2023-03-03T19:27:08.238Z,99104.00
2023-03-03T19:29:46.631Z,99092.00
2023-03-03T19:32:42.855Z,99092.00
2023-03-03T19:35:43.792Z,99098.00
2023-03-03T19:38:29.149Z,99104.00
2023-03-03T19:41:34.073Z,99097.00
2023-03-03T19:44:15.344Z,99109.00
2023-03-03T19:47:03.475Z,99102.00
2023-03-03T19:49:33.044Z,99105.00
2023-03-03T19:52:18.403Z,99113.00
2023-03-03T19:55:13.727Z,99114.00
2023-03-03T19:58:12.294Z,99114.00
2023-03-03T20:00:45.275Z,99107.00
2023-03-03T20:03:49.509Z,99123.00
2023-03-03T20:06:34.491Z,99124.00
2023-03-03T20:09:18.037Z,99120.00
2023-03-03T20:12:09.511Z,99124.00
2023-03-03T20:14:45.953Z,99125.00
2023-03-03T20:17:30.913Z,99128.00
2023-03-03T20:20:13.163Z,99128.00
2023-03-03T20:23:05.238Z,99128.00
2023-03-03T20:25:44.257Z,99129.00
2023-03-03T20:28:38.615Z,99129.00
2023-03-03T20:31:26.326Z,99133.00
2023-03-03T20:33:58.733Z,99134.00
2023-03-03T20:36:46.990Z,99133.00
2023-03-03T20:39:36.004Z,99133.00
2023-03-03T20:42:07.181Z,99130.00
2023-03-03T20:44:46.898Z,99129.00
2023-03-03T20:47:22.877Z,99135.00
2023-03-03T20:50:09.983Z,99139.00
2023-03-03T20:52:57.484Z,99137.00
2023-03-03T20:55:42.910Z,99142.00
2023-03-03T20:58:34.888Z,99148.00
2023-03-03T21:01:15.716Z,99146.00
2023-03-03T21:03:45.212Z,99145.00
2023-03-03T21:06:16.709Z,99138.00
2023-03-03T21:08:53.428Z,99144.00
2023-03-03T21:11:46.521Z,99142.00
2023-03-03T21:14:22.704Z,99141.00
2023-03-03T21:16:50.932Z,99144.00
2023-03-03T21:19:29.869Z,99147.00
2023-03-03T21:21:59.276Z,99138.00
2023-03-03T21:24:57.494Z,99138.00
2023-03-03T21:27:33.607Z,99144.00
2023-03-03T21:30:12.360Z,99151.00
2023-03-03T21:32:44.721Z,99154.00
2023-03-03T21:35:14.479Z,99154.00
2023-03-03T21:37:53.138Z,99159.00
2023-03-03T21:40:28.300Z,99147.00
2023-03-03T21:42:57.799Z,99147.00
2023-03-03T21:45:24.765Z,99157.00
2023-03-03T21:47:54.828Z,99152.00
2023-03-03T21:50:21.506Z,99155.00
2023-03-03T21:52:48.898Z,99161.00
2023-03-03T21:55:15.725Z,99158.00
2023-03-03T21:57:42.235Z,99154.00
2023-03-03T22:00:10.099Z,99146.00
2023-03-03T22:02:36.778Z,99148.00
2023-03-03T22:05:03.968Z,99152.00
2023-03-03T22:07:30.598Z,99157.00
2023-03-03T22:09:57.110Z,99152.00
2023-03-03T22:12:23.614Z,99145.00
2023-03-03T22:14:50.194Z,99149.00
2023-03-03T22:17:16.892Z,99158.00
2023-03-03T22:19:43.413Z,99151.00
2023-03-03T22:22:09.896Z,99157.00
2023-03-03T22:24:36.400Z,99150.00
2023-03-03T22:27:03.409Z,99154.00
2023-03-03T22:29:29.941Z,99154.00
2023-03-03T22:31:56.470Z,99154.00
2023-03-03T22:34:23.084Z,99147.00
2023-03-03T22:36:49.593Z,99147.00
2023-03-03T22:39:16.115Z,99156.00
2023-03-03T22:41:42.612Z,99155.00
2023-03-03T22:44:09.124Z,99149.00
2023-03-03T22:46:35.685Z,99154.00
2023-03-03T22:49:02.382Z,99153.00
2023-03-03T22:51:28.918Z,99160.00
2023-03-03T22:53:55.431Z,99156.00
2023-03-03T22:56:22.023Z,99150.00
2023-03-03T22:58:49.184Z,99156.00
2023-03-03T23:01:15.760Z,99161.00
2023-03-03T23:03:42.267Z,99163.00
2023-03-03T23:06:08.747Z,99153.00
2023-03-03T23:08:35.368Z,99157.00
2023-03-03T23:11:02.788Z,99158.00
2023-03-03T23:13:29.255Z,99162.00
2023-03-03T23:15:59.971Z,99163.00
2023-03-03T23:18:28.214Z,99178.00
2023-03-03T23:20:55.287Z,99171.00
2023-03-03T23:23:22.085Z,99174.00
2023-03-03T23:25:48.635Z,99174.00
2023-03-03T23:28:15.847Z,99169.00
2023-03-03T23:30:43.106Z,99170.00
2023-03-03T23:33:09.776Z,99172.00
2023-03-03T23:35:36.652Z,99177.00
2023-03-03T23:38:03.305Z,99185.00
2023-03-03T23:40:29.948Z,99175.00
2023-03-03T23:42:56.800Z,99169.00
2023-03-03T23:45:23.453Z,99170.00
2023-03-03T23:47:50.074Z,99179.00
2023-03-03T23:50:16.693Z,99188.00
2023-03-03T23:52:43.286Z,99190.00
2023-03-03T23:55:10.209Z,99197.00
2023-03-03T23:57:36.748Z,99195.00
